createdAt,value
2019-01-18T00:01:14.340Z,96719.23
2019-01-18T00:03:43.938Z,96730.77
2019-01-18T00:06:13.696Z,96723.36
2019-01-18T00:08:43.473Z,96728.01
2019-01-18T00:11:13.140Z,96740.37
2019-01-18T00:13:42.767Z,96736.17
2019-01-18T00:16:12.490Z,96728.93
2019-01-18T00:18:42.112Z,96734.25
2019-01-18T00:21:11.841Z,96733.77
2019-01-18T00:23:41.524Z,96732.09
2019-01-18T00:26:11.231Z,96737.36
2019-01-18T00:28:41.220Z,96737.15
2019-01-18T00:31:10.948Z,96739.35
2019-01-18T00:33:40.559Z,96746.61
2019-01-18T00:36:10.580Z,96744.13
2019-01-18T00:38:40.261Z,96749.03
2019-01-18T00:41:09.948Z,96749.29
2019-01-18T00:43:39.614Z,96748.25
2019-01-18T00:46:09.743Z,96751.77
2019-01-18T00:48:39.487Z,96744.91
2019-01-18T00:51:09.212Z,96756.27
2019-01-18T00:53:39.057Z,96758.05
2019-01-18T00:56:08.768Z,96746.34
2019-01-18T00:58:38.452Z,96753.00
2019-01-18T01:01:08.263Z,96759.02
2019-01-18T01:03:37.985Z,96747.72
2019-01-18T01:06:07.718Z,96765.91
2019-01-18T01:08:37.396Z,96765.33
2019-01-18T01:11:07.135Z,96776.37
2019-01-18T01:13:36.901Z,96779.71
2019-01-18T01:16:06.602Z,96791.03
2019-01-18T01:18:36.263Z,96790.95
2019-01-18T01:21:05.974Z,96798.45
2019-01-18T01:23:35.647Z,96806.53
2019-01-18T01:26:05.399Z,96801.25
2019-01-18T01:28:35.182Z,96798.20
2019-01-18T01:31:05.573Z,96805.33
2019-01-18T01:33:35.368Z,96813.77
2019-01-18T01:36:05.061Z,96815.47
2019-01-18T01:38:34.835Z,96810.98
2019-01-18T01:41:04.565Z,96816.39
2019-01-18T01:43:34.289Z,96812.03
2019-01-18T01:46:03.992Z,96814.20
2019-01-18T01:48:33.751Z,96824.08
2019-01-18T01:51:03.438Z,96813.75
2019-01-18T01:53:33.278Z,96819.12
2019-01-18T01:56:03.208Z,96833.39
2019-01-18T01:58:32.987Z,96832.78
2019-01-18T02:01:02.615Z,96835.63
2019-01-18T02:03:32.300Z,96841.54
2019-01-18T02:06:02.032Z,96849.90
2019-01-18T02:08:31.708Z,96844.61
2019-01-18T02:11:01.358Z,96852.63
2019-01-18T02:13:31.008Z,96856.44
2019-01-18T02:16:00.719Z,96844.13
2019-01-18T02:18:30.459Z,96844.07
2019-01-18T02:21:00.246Z,96840.53
2019-01-18T02:23:29.877Z,96855.23
2019-01-18T02:25:59.571Z,96856.50
2019-01-18T02:28:29.288Z,96856.80
2019-01-18T02:30:58.969Z,96858.53
2019-01-18T02:33:28.664Z,96860.57
2019-01-18T02:35:58.414Z,96850.50
2019-01-18T02:38:28.129Z,96857.12
2019-01-18T02:40:57.860Z,96864.25
2019-01-18T02:43:27.508Z,96862.89
2019-01-18T02:45:57.185Z,96870.53
2019-01-18T02:48:26.836Z,96878.72
2019-01-18T02:50:56.534Z,96883.55
2019-01-18T02:53:26.121Z,96882.23
2019-01-18T02:55:55.802Z,96889.94
2019-01-18T02:58:25.421Z,96900.38
2019-01-18T03:00:55.115Z,96899.96
2019-01-18T03:03:24.724Z,96901.10
2019-01-18T03:05:54.348Z,96904.55
2019-01-18T03:08:23.991Z,96905.38
2019-01-18T03:10:53.664Z,96907.33
2019-01-18T03:13:23.354Z,96902.24
2019-01-18T03:15:53.020Z,96908.36
2019-01-18T03:18:22.681Z,96912.72
2019-01-18T03:20:52.644Z,96914.41
2019-01-18T03:23:22.375Z,96910.43
2019-01-18T03:25:51.702Z,96904.27
2019-01-18T03:28:21.029Z,96912.09
2019-01-18T03:30:50.354Z,96910.04
2019-01-18T03:33:19.676Z,96920.67
2019-01-18T03:35:49.072Z,96921.58
2019-01-18T03:38:18.397Z,96922.16
2019-01-18T03:40:47.724Z,96918.23
2019-01-18T03:43:17.052Z,96922.23
2019-01-18T03:45:46.474Z,96926.42
2019-01-18T03:48:15.896Z,96940.84
2019-01-18T03:50:45.222Z,96933.77
2019-01-18T03:53:14.567Z,96941.12
2019-01-18T03:55:43.958Z,96941.97
2019-01-18T03:58:13.275Z,96946.05
2019-01-18T04:00:42.614Z,96951.64
2019-01-18T04:03:11.930Z,96960.52
2019-01-18T04:05:41.258Z,96961.52
2019-01-18T04:08:10.595Z,96957.85
2019-01-18T04:10:40.000Z,96956.92
2019-01-18T04:13:09.333Z,96966.16
2019-01-18T04:15:38.668Z,96971.36
2019-01-18T04:18:08.088Z,96980.39
2019-01-18T04:20:37.451Z,96973.39
2019-01-18T04:23:06.767Z,96970.52
2019-01-18T04:25:36.091Z,96977.59
2019-01-18T04:28:05.525Z,96976.29
2019-01-18T04:30:35.021Z,96988.01
2019-01-18T04:33:04.362Z,96994.72
2019-01-18T04:35:33.686Z,96998.07
2019-01-18T04:38:03.020Z,96999.55
2019-01-18T04:40:32.392Z,96998.15
2019-01-18T04:43:01.805Z,97010.69
2019-01-18T04:45:31.131Z,97019.08
2019-01-18T04:48:00.453Z,97018.97
2019-01-18T04:50:29.873Z,97019.47
2019-01-18T04:52:59.220Z,97029.56
2019-01-18T04:55:28.550Z,97017.42
2019-01-18T04:57:57.871Z,97024.23
2019-01-18T05:00:31.059Z,97031.22
2019-01-18T05:03:00.457Z,97035.16
2019-01-18T05:05:29.858Z,97036.78
2019-01-18T05:07:59.180Z,97040.25
2019-01-18T05:10:29.282Z,97051.91
2019-01-18T05:12:59.230Z,97051.27
2019-01-18T05:15:30.456Z,97062.91
2019-01-18T05:17:59.783Z,97055.50
2019-01-18T05:20:29.100Z,97063.19
2019-01-18T05:22:58.466Z,97071.57
2019-01-18T05:25:27.776Z,97069.16
2019-01-18T05:27:57.110Z,97078.09
2019-01-18T05:30:28.071Z,97079.39
2019-01-18T05:32:57.544Z,97084.80
2019-01-18T05:35:27.021Z,97088.33
2019-01-18T05:37:56.433Z,97103.51
2019-01-18T05:40:25.757Z,97105.83
2019-01-18T05:42:55.135Z,97098.84
2019-01-18T05:45:24.589Z,97107.05
2019-01-18T05:47:54.016Z,97114.78
2019-01-18T05:50:28.220Z,97114.94
2019-01-18T05:52:58.344Z,97123.38
2019-01-18T05:55:27.668Z,97124.36
2019-01-18T05:57:57.018Z,97136.66
2019-01-18T06:00:55.000Z,97134.05
2019-01-18T06:03:18.727Z,97139.25
2019-01-18T06:05:48.227Z,97146.12
2019-01-18T06:08:17.571Z,97145.50
2019-01-18T06:10:46.971Z,97150.05
2019-01-18T06:13:16.329Z,97161.59
2019-01-18T06:15:45.741Z,97162.77
2019-01-18T06:18:15.085Z,97167.44
2019-01-18T06:20:44.430Z,97166.75
2019-01-18T06:23:13.780Z,97181.78
2019-01-18T06:25:43.189Z,97181.58
2019-01-18T06:28:12.601Z,97191.24
2019-01-18T06:30:41.950Z,97191.32
2019-01-18T06:33:11.373Z,97194.02
2019-01-18T06:35:40.730Z,97193.72
2019-01-18T06:38:10.150Z,97200.11
2019-01-18T06:40:39.593Z,97207.08
2019-01-18T06:43:08.936Z,97213.06
2019-01-18T06:45:38.285Z,97220.11
2019-01-18T06:48:07.601Z,97218.41
2019-01-18T06:50:36.954Z,97223.31
2019-01-18T06:53:08.414Z,97225.40
2019-01-18T06:55:37.753Z,97224.34
2019-01-18T06:58:07.160Z,97230.90
2019-01-18T07:00:36.495Z,97242.37
2019-01-18T07:03:06.023Z,97245.50
2019-01-18T07:05:35.351Z,97252.84
2019-01-18T07:08:04.967Z,97251.98
2019-01-18T07:10:34.370Z,97261.85
2019-01-18T07:13:03.809Z,97266.07
2019-01-18T07:15:33.221Z,97271.17
2019-01-18T07:18:02.629Z,97273.37
2019-01-18T07:20:32.033Z,97281.67
2019-01-18T07:23:01.349Z,97280.09
2019-01-18T07:25:31.614Z,97272.70
2019-01-18T07:28:01.071Z,97272.62
2019-01-18T07:30:35.761Z,97291.23
2019-01-18T07:33:06.909Z,97287.66
2019-01-18T07:35:36.343Z,97281.45
2019-01-18T07:38:05.747Z,97288.25
2019-01-18T07:40:35.357Z,97294.55
2019-01-18T07:43:04.899Z,97291.48
2019-01-18T07:45:34.249Z,97291.54
2019-01-18T07:48:03.748Z,97300.64
2019-01-18T07:50:33.166Z,97297.37
2019-01-18T07:53:02.513Z,97312.22
2019-01-18T07:55:33.578Z,97316.73
2019-01-18T07:58:02.973Z,97323.09
2019-01-18T08:00:32.378Z,97324.73
2019-01-18T08:03:01.800Z,97321.77
2019-01-18T08:05:32.132Z,97327.40
2019-01-18T08:08:03.088Z,97330.97
2019-01-18T08:10:32.633Z,97337.56
2019-01-18T08:13:02.050Z,97345.41
2019-01-18T08:15:31.386Z,97352.06
2019-01-18T08:18:00.800Z,97351.56
2019-01-18T08:20:31.040Z,97358.97
2019-01-18T08:23:01.334Z,97364.30
2019-01-18T08:25:30.669Z,97368.26
2019-01-18T08:28:00.490Z,97377.48
2019-01-18T08:30:30.909Z,97385.48
2019-01-18T08:33:00.222Z,97376.23
2019-01-18T08:35:30.309Z,97386.55
2019-01-18T08:37:59.752Z,97384.23
2019-01-18T08:40:34.639Z,97385.33
2019-01-18T08:43:04.834Z,97386.47
2019-01-18T08:45:37.439Z,97388.02
2019-01-18T08:48:07.501Z,97399.70
2019-01-18T08:50:37.066Z,97397.27
2019-01-18T08:53:06.649Z,97406.19
2019-01-18T08:55:36.054Z,97401.42
2019-01-18T08:58:05.478Z,97402.36
2019-01-18T09:00:34.892Z,97402.88
2019-01-18T09:03:04.484Z,97407.55
2019-01-18T09:05:33.903Z,97413.04
2019-01-18T09:08:03.307Z,97410.47
2019-01-18T09:10:33.018Z,97411.41
2019-01-18T09:13:02.665Z,97418.39
2019-01-18T09:15:32.066Z,97425.58
2019-01-18T09:18:01.494Z,97434.05
2019-01-18T09:20:30.980Z,97431.30
2019-01-18T09:23:00.404Z,97436.59
2019-01-18T09:25:29.834Z,97441.58
2019-01-18T09:27:59.239Z,97438.61
2019-01-18T09:30:32.189Z,97435.41
2019-01-18T09:33:02.381Z,97445.77
2019-01-18T09:35:31.884Z,97446.42
2019-01-18T09:38:01.447Z,97453.05
2019-01-18T09:40:32.310Z,97453.05
2019-01-18T09:43:01.804Z,97446.34
2019-01-18T09:45:31.216Z,97451.48
2019-01-18T09:48:00.619Z,97452.59
2019-01-18T09:50:31.591Z,97458.30
2019-01-18T09:53:01.559Z,97450.45
2019-01-18T09:55:30.967Z,97460.12
2019-01-18T09:58:00.493Z,97457.99
2019-01-18T10:00:31.858Z,97457.30
2019-01-18T10:03:01.588Z,97459.60
2019-01-18T10:05:31.744Z,97457.34
2019-01-18T10:08:01.401Z,97456.98
2019-01-18T10:10:30.840Z,97453.34
2019-01-18T10:13:00.281Z,97457.06
2019-01-18T10:15:35.656Z,97453.78
2019-01-18T10:18:05.637Z,97461.27
2019-01-18T10:20:35.035Z,97458.87
2019-01-18T10:23:04.595Z,97461.74
2019-01-18T10:25:34.013Z,97453.48
2019-01-18T10:28:03.524Z,97453.88
2019-01-18T10:30:33.816Z,97450.14
2019-01-18T10:33:03.247Z,97451.86
2019-01-18T10:35:32.591Z,97453.67
2019-01-18T10:38:01.946Z,97451.35
2019-01-18T10:40:31.364Z,97450.77
2019-01-18T10:43:00.774Z,97443.62
2019-01-18T10:45:30.204Z,97449.33
2019-01-18T10:48:00.089Z,97445.81
2019-01-18T10:50:31.659Z,97455.89
2019-01-18T10:53:01.119Z,97455.64
2019-01-18T10:55:30.452Z,97454.64
2019-01-18T10:57:59.877Z,97455.30
2019-01-18T11:00:32.240Z,97452.84
2019-01-18T11:03:01.637Z,97448.73
2019-01-18T11:05:31.093Z,97447.96
2019-01-18T11:08:02.955Z,97450.31
2019-01-18T11:10:32.295Z,97454.51
2019-01-18T11:13:01.693Z,97455.34
2019-01-18T11:15:35.994Z,97464.07
2019-01-18T11:18:02.445Z,97463.13
2019-01-18T11:20:47.545Z,97461.94
2019-01-18T11:23:16.965Z,97456.41
2019-01-18T11:25:46.304Z,97452.78
2019-01-18T11:28:15.660Z,97448.90
2019-01-18T11:30:44.977Z,97450.65
2019-01-18T11:33:14.393Z,97444.06
2019-01-18T11:35:43.983Z,97447.13
2019-01-18T11:38:13.409Z,97449.62
2019-01-18T11:40:42.848Z,97449.38
2019-01-18T11:43:12.218Z,97453.36
2019-01-18T11:45:41.551Z,97451.83
2019-01-18T11:48:11.041Z,97448.73
2019-01-18T11:50:40.496Z,97452.77
2019-01-18T11:53:09.831Z,97442.20
2019-01-18T11:55:39.255Z,97451.17
2019-01-18T11:58:08.693Z,97435.02
2019-01-18T12:00:38.131Z,97439.59
2019-01-18T12:03:07.643Z,97446.38
2019-01-18T12:05:37.012Z,97452.77
2019-01-18T12:08:06.421Z,97449.52
2019-01-18T12:10:35.760Z,97447.09
2019-01-18T12:13:05.577Z,97435.77
2019-01-18T12:15:35.020Z,97443.64
2019-01-18T12:18:05.039Z,97443.48
2019-01-18T12:20:36.027Z,97434.52
2019-01-18T12:23:06.205Z,97439.23
2019-01-18T12:25:35.545Z,97433.88
2019-01-18T12:28:05.399Z,97425.28
2019-01-18T12:30:35.891Z,97437.92
2019-01-18T12:33:05.314Z,97430.63
2019-01-18T12:35:34.821Z,97434.09
2019-01-18T12:38:04.345Z,97430.84
2019-01-18T12:40:33.806Z,97436.88
2019-01-18T12:43:03.241Z,97429.80
2019-01-18T12:45:32.674Z,97435.35
2019-01-18T12:48:02.107Z,97432.17
2019-01-18T12:50:36.186Z,97432.43
2019-01-18T12:53:05.983Z,97425.51
2019-01-18T12:55:35.406Z,97432.69
2019-01-18T12:58:05.043Z,97435.47
2019-01-18T13:00:34.474Z,97430.59
2019-01-18T13:03:04.034Z,97430.01
2019-01-18T13:05:36.888Z,97431.11
2019-01-18T13:08:06.309Z,97428.16
2019-01-18T13:10:35.752Z,97438.70
2019-01-18T13:13:05.509Z,97431.15
2019-01-18T13:15:56.080Z,97434.25
2019-01-18T13:18:25.447Z,97440.91
2019-01-18T13:20:55.119Z,97439.59
2019-01-18T13:23:24.454Z,97439.81
2019-01-18T13:25:53.903Z,97436.67
2019-01-18T13:28:24.830Z,97436.94
2019-01-18T13:30:54.153Z,97436.09
2019-01-18T13:33:23.504Z,97440.49
2019-01-18T13:35:53.076Z,97439.39
2019-01-18T13:38:22.420Z,97434.56
2019-01-18T13:40:51.839Z,97438.13
2019-01-18T13:43:21.281Z,97444.58
2019-01-18T13:45:50.637Z,97443.41
2019-01-18T13:48:20.108Z,97445.64
2019-01-18T13:50:49.461Z,97446.22
2019-01-18T13:53:18.829Z,97449.17
2019-01-18T13:55:48.253Z,97449.41
2019-01-18T13:58:17.613Z,97460.25
2019-01-18T14:00:47.023Z,97456.33
2019-01-18T14:03:16.392Z,97455.22
2019-01-18T14:05:45.853Z,97455.98
2019-01-18T14:08:15.272Z,97456.48
2019-01-18T14:10:44.751Z,97455.98
2019-01-18T14:13:14.117Z,97450.34
2019-01-18T14:15:43.572Z,97448.00
2019-01-18T14:18:13.116Z,97448.60
2019-01-18T14:20:42.534Z,97454.91
2019-01-18T14:23:12.169Z,97456.42
2019-01-18T14:25:41.512Z,97456.26
2019-01-18T14:28:10.957Z,97461.86
2019-01-18T14:30:40.383Z,97459.72
2019-01-18T14:33:09.795Z,97451.69
2019-01-18T14:35:39.131Z,97457.16
2019-01-18T14:38:08.549Z,97463.34
2019-01-18T14:40:37.974Z,97469.17
2019-01-18T14:43:07.332Z,97466.11
2019-01-18T14:45:39.002Z,97470.95
2019-01-18T14:48:08.489Z,97470.48
2019-01-18T14:50:38.168Z,97456.48
2019-01-18T14:53:07.618Z,97468.37
2019-01-18T14:55:37.077Z,97466.11
2019-01-18T14:58:08.953Z,97467.33
2019-01-18T15:00:39.553Z,97472.66
2019-01-18T15:03:09.172Z,97476.13
2019-01-18T15:05:38.570Z,97465.83
2019-01-18T15:08:08.621Z,97468.72
2019-01-18T15:10:38.173Z,97477.42
2019-01-18T15:13:10.329Z,97472.69
2019-01-18T15:15:39.733Z,97472.17
2019-01-18T15:18:09.159Z,97476.19
2019-01-18T15:20:38.586Z,97476.66
2019-01-18T15:23:08.037Z,97477.97
2019-01-18T15:25:37.983Z,97481.80
2019-01-18T15:28:07.387Z,97477.97
2019-01-18T15:30:36.882Z,97476.48
2019-01-18T15:33:09.423Z,97480.06
2019-01-18T15:35:38.568Z,97477.55
2019-01-18T15:38:09.858Z,97477.50
2019-01-18T15:40:45.649Z,97475.54
2019-01-18T15:43:17.571Z,97478.25
2019-01-18T15:45:47.008Z,97479.19
2019-01-18T15:48:16.416Z,97485.16
2019-01-18T15:50:45.768Z,97485.81
2019-01-18T15:53:15.197Z,97482.27
2019-01-18T15:55:44.606Z,97489.84
2019-01-18T15:58:14.021Z,97488.53
2019-01-18T16:00:44.417Z,97498.53
2019-01-18T16:03:16.043Z,97491.71
2019-01-18T16:05:45.238Z,97490.59
2019-01-18T16:08:14.693Z,97497.68
2019-01-18T16:10:44.057Z,97498.61
2019-01-18T16:13:13.867Z,97498.05
2019-01-18T16:16:06.685Z,97494.22
2019-01-18T16:18:36.108Z,97498.41
2019-01-18T16:21:05.594Z,97492.63
2019-01-18T16:23:34.981Z,97494.67
2019-01-18T16:26:04.475Z,97494.87
2019-01-18T16:28:33.799Z,97497.00
2019-01-18T16:31:03.154Z,97486.38
2019-01-18T16:33:32.568Z,97492.89
2019-01-18T16:36:01.904Z,97493.17
2019-01-18T16:38:31.240Z,97494.12
2019-01-18T16:41:00.592Z,97501.02
2019-01-18T16:43:35.825Z,97497.28
2019-01-18T16:46:05.252Z,97496.65
2019-01-18T16:48:34.662Z,97487.04
2019-01-18T16:51:04.215Z,97493.37
2019-01-18T16:53:33.748Z,97498.03
2019-01-18T16:56:03.376Z,97494.84
2019-01-18T16:58:32.834Z,97490.00
2019-01-18T17:01:03.859Z,97498.32
2019-01-18T17:03:33.274Z,97490.00
2019-01-18T17:06:02.784Z,97492.22
2019-01-18T17:08:32.194Z,97495.19
2019-01-18T17:11:01.663Z,97495.22
2019-01-18T17:13:34.656Z,97493.16
2019-01-18T17:16:04.088Z,97495.30
2019-01-18T17:18:33.606Z,97488.66
2019-01-18T17:21:02.964Z,97490.12
2019-01-18T17:23:32.374Z,97493.69
2019-01-18T17:26:01.818Z,97483.30
2019-01-18T17:28:31.230Z,97484.61
2019-01-18T17:31:00.577Z,97488.80
2019-01-18T17:33:30.013Z,97489.92
2019-01-18T17:36:16.462Z,97490.12
2019-01-18T17:39:15.449Z,97483.48
2019-01-18T17:42:12.393Z,97480.58
2019-01-18T17:45:09.061Z,97483.81
2019-01-18T17:48:07.075Z,97480.73
2019-01-18T17:51:17.617Z,97483.66
2019-01-18T17:54:11.037Z,97479.45
2019-01-18T17:57:24.681Z,97480.27
2019-01-18T18:00:22.957Z,97492.97
2019-01-18T18:03:22.400Z,97494.27
2019-01-18T18:06:27.758Z,97490.56
2019-01-18T18:09:08.930Z,97494.86
2019-01-18T18:12:04.244Z,97498.16
2019-01-18T18:14:51.731Z,97502.31
2019-01-18T18:17:40.803Z,97498.28
2019-01-18T18:20:45.840Z,97498.36
2019-01-18T18:23:53.929Z,97489.17
2019-01-18T18:26:51.624Z,97490.91
2019-01-18T18:29:51.852Z,97492.39
2019-01-18T18:32:50.809Z,97488.39
2019-01-18T18:35:44.316Z,97488.19
2019-01-18T18:39:13.056Z,97491.08
2019-01-18T18:42:29.361Z,97492.56
2019-01-18T18:45:41.105Z,97499.63
2019-01-18T18:48:45.185Z,97496.85
2019-01-18T18:51:53.054Z,97505.86
2019-01-18T18:54:40.701Z,97502.46
2019-01-18T18:57:26.065Z,97492.61
2019-01-18T19:00:12.747Z,97500.11
2019-01-18T19:03:14.904Z,97496.81
2019-01-18T19:06:28.902Z,97498.12
2019-01-18T19:09:45.689Z,97499.39
2019-01-18T19:12:57.884Z,97489.91
2019-01-18T19:15:47.689Z,97492.61
2019-01-18T19:18:37.847Z,97496.11
2019-01-18T19:21:29.653Z,97493.29
2019-01-18T19:24:22.581Z,97494.72
2019-01-18T19:27:07.398Z,97501.41
2019-01-18T19:30:03.115Z,97491.91
2019-01-18T19:33:11.838Z,97489.46
2019-01-18T19:36:10.415Z,97491.81
2019-01-18T19:39:29.855Z,97493.37
2019-01-18T19:42:24.482Z,97487.78
2019-01-18T19:45:33.726Z,97487.31
2019-01-18T19:48:13.595Z,97474.70
2019-01-18T19:51:15.097Z,97472.04
2019-01-18T19:54:02.688Z,97472.25
2019-01-18T19:57:00.830Z,97473.14
2019-01-18T19:59:54.407Z,97477.52
2019-01-18T20:03:05.714Z,97479.74
2019-01-18T20:05:56.348Z,97475.63
2019-01-18T20:08:44.901Z,97475.45
2019-01-18T20:11:39.856Z,97462.49
2019-01-18T20:14:24.698Z,97458.58
2019-01-18T20:17:07.773Z,97458.67
2019-01-18T20:20:23.189Z,97463.51
2019-01-18T20:23:38.197Z,97461.83
2019-01-18T20:26:57.985Z,97462.16
2019-01-18T20:29:47.348Z,97462.62
2019-01-18T20:32:51.983Z,97467.59
2019-01-18T20:36:05.644Z,97458.84
2019-01-18T20:38:58.657Z,97468.94
2019-01-18T20:42:14.452Z,97467.20
2019-01-18T20:45:10.538Z,97466.62
2019-01-18T20:48:22.056Z,97472.63
2019-01-18T20:51:11.511Z,97465.61
2019-01-18T20:54:26.631Z,97461.83
2019-01-18T20:57:17.383Z,97470.06
2019-01-18T21:00:18.037Z,97465.69
2019-01-18T21:03:24.386Z,97459.26
2019-01-18T21:06:32.543Z,97463.72
2019-01-18T21:09:18.989Z,97468.05
2019-01-18T21:12:05.356Z,97462.08
2019-01-18T21:14:51.417Z,97460.80
2019-01-18T21:17:48.089Z,97448.86
2019-01-18T21:20:44.419Z,97454.70
2019-01-18T21:24:18.934Z,97448.56
2019-01-18T21:27:10.392Z,97453.83
2019-01-18T21:30:03.643Z,97462.95
2019-01-18T21:33:35.261Z,97450.67
2019-01-18T21:36:22.716Z,97456.19
2019-01-18T21:39:02.214Z,97450.34
2019-01-18T21:42:16.056Z,97444.78
2019-01-18T21:45:28.368Z,97449.88
2019-01-18T21:48:22.607Z,97458.58
2019-01-18T21:51:07.666Z,97458.95
2019-01-18T21:54:07.690Z,97458.83
2019-01-18T21:57:02.772Z,97465.16
2019-01-18T22:00:10.401Z,97462.55
2019-01-18T22:03:01.716Z,97463.03
2019-01-18T22:06:20.938Z,97464.42
2019-01-18T22:09:08.643Z,97464.34
2019-01-18T22:12:01.520Z,97463.27
2019-01-18T22:14:59.626Z,97467.62
2019-01-18T22:17:51.834Z,97463.86
2019-01-18T22:20:57.035Z,97466.58
2019-01-18T22:23:55.002Z,97465.89
2019-01-18T22:26:53.379Z,97462.58
2019-01-18T22:30:10.416Z,97469.13
2019-01-18T22:33:04.849Z,97469.94
2019-01-18T22:36:12.999Z,97466.59
2019-01-18T22:39:06.807Z,97473.93
2019-01-18T22:42:13.986Z,97463.37
2019-01-18T22:45:04.212Z,97460.79
2019-01-18T22:48:07.021Z,97459.78
2019-01-18T22:51:16.261Z,97453.76
2019-01-18T22:54:09.011Z,97453.59
2019-01-18T22:57:22.728Z,97456.83
2019-01-18T23:00:16.140Z,97458.89
2019-01-18T23:03:05.544Z,97453.45
2019-01-18T23:06:14.040Z,97459.51
2019-01-18T23:09:12.598Z,97452.94
2019-01-18T23:12:13.213Z,97446.63
2019-01-18T23:14:58.437Z,97445.78
2019-01-18T23:17:42.856Z,97438.07
2019-01-18T23:21:05.778Z,97425.60
2019-01-18T23:24:13.631Z,97423.91
2019-01-18T23:27:36.438Z,97426.21
2019-01-18T23:30:50.128Z,97414.56
2019-01-18T23:33:49.156Z,97414.67
2019-01-18T23:36:47.778Z,97408.61
2019-01-18T23:40:02.971Z,97410.46
2019-01-18T23:42:39.800Z,97404.84
2019-01-18T23:45:35.590Z,97396.86
2019-01-18T23:48:35.666Z,97392.64
2019-01-18T23:51:38.272Z,97388.47
2019-01-18T23:54:42.132Z,97384.69
2019-01-18T23:57:59.626Z,97374.48
